createdAt,value
2023-02-03T00:01:18.970Z,8.80
2023-02-03T00:03:45.550Z,8.80
2023-02-03T00:06:12.170Z,8.80
2023-02-03T00:08:39.938Z,8.80
2023-02-03T00:11:08.335Z,8.80
2023-02-03T00:13:35.266Z,8.90
2023-02-03T00:16:02.324Z,8.90
2023-02-03T00:18:29.034Z,8.90
2023-02-03T00:20:55.673Z,8.90
2023-02-03T00:23:22.272Z,8.90
2023-02-03T00:25:48.927Z,8.90
2023-02-03T00:28:15.599Z,8.90
2023-02-03T00:30:42.247Z,8.90
2023-02-03T00:33:08.879Z,8.90
2023-02-03T00:35:38.612Z,8.90
2023-02-03T00:38:05.282Z,8.90
2023-02-03T00:40:31.966Z,8.90
2023-02-03T00:42:58.589Z,8.90
2023-02-03T00:45:25.298Z,8.90
2023-02-03T00:47:51.989Z,9.00
2023-02-03T00:50:18.681Z,9.00
2023-02-03T00:52:45.317Z,9.00
2023-02-03T00:55:11.939Z,9.00
2023-02-03T00:57:38.538Z,9.00
2023-02-03T01:00:05.947Z,9.00
2023-02-03T01:02:32.656Z,9.00
2023-02-03T01:04:59.316Z,9.00
2023-02-03T01:07:25.985Z,9.00
2023-02-03T01:09:52.617Z,9.00
2023-02-03T01:12:19.242Z,9.00
2023-02-03T01:14:45.860Z,9.00
2023-02-03T01:17:12.461Z,9.10
2023-02-03T01:19:39.175Z,9.10
2023-02-03T01:22:05.794Z,9.10
2023-02-03T01:24:32.391Z,9.10
2023-02-03T01:26:59.032Z,9.10
2023-02-03T01:29:25.767Z,9.10
2023-02-03T01:31:52.441Z,9.10
2023-02-03T01:34:19.188Z,9.10
2023-02-03T01:36:45.785Z,9.10
2023-02-03T01:39:12.397Z,9.10
2023-02-03T01:41:41.221Z,9.10
2023-02-03T01:44:45.204Z,9.10
2023-02-03T01:47:19.085Z,9.10
2023-02-03T01:49:49.563Z,9.10
2023-02-03T01:52:16.488Z,9.10
2023-02-03T01:54:44.514Z,9.20
2023-02-03T01:57:15.334Z,9.20
2023-02-03T01:59:41.934Z,9.10
2023-02-03T02:02:09.303Z,9.20
2023-02-03T02:05:05.312Z,9.10
2023-02-03T02:07:32.439Z,9.20
2023-02-03T02:09:59.344Z,9.20
2023-02-03T02:12:26.040Z,9.10
2023-02-03T02:14:52.655Z,9.20
2023-02-03T02:17:56.330Z,9.20
2023-02-03T02:21:13.857Z,9.20
2023-02-03T02:24:28.255Z,9.10
2023-02-03T02:27:21.561Z,9.10
2023-02-03T02:29:48.205Z,9.10
2023-02-03T02:32:42.570Z,9.10
2023-02-03T02:35:44.551Z,9.10
2023-02-03T02:38:16.979Z,9.20
2023-02-03T02:40:55.134Z,9.10
2023-02-03T02:47:09.541Z,9.10
2023-02-03T02:49:54.972Z,9.20
2023-02-03T02:52:22.071Z,9.20
2023-02-03T02:54:51.633Z,9.20
2023-02-03T02:57:18.660Z,9.20
2023-02-03T02:59:46.658Z,9.20
2023-02-03T03:02:13.307Z,9.20
2023-02-03T03:04:39.985Z,9.20
2023-02-03T03:07:08.345Z,9.20
2023-02-03T03:10:01.260Z,9.20
2023-02-03T03:12:33.804Z,9.20
2023-02-03T03:15:06.198Z,9.20
2023-02-03T03:17:38.516Z,9.20
2023-02-03T03:20:08.413Z,9.20
2023-02-03T03:22:36.871Z,9.20
2023-02-03T03:25:06.509Z,9.20
2023-02-03T03:27:36.297Z,9.20
2023-02-03T03:30:05.296Z,9.20
2023-02-03T03:32:31.948Z,9.20
2023-02-03T03:34:59.593Z,9.20
2023-02-03T03:37:50.520Z,9.20
2023-02-03T03:40:34.791Z,9.20
2023-02-03T03:43:07.781Z,9.20
2023-02-03T03:45:54.889Z,9.20
2023-02-03T03:48:50.314Z,9.20
2023-02-03T03:51:20.209Z,9.10
2023-02-03T03:53:47.738Z,9.10
2023-02-03T03:56:17.427Z,9.10
2023-02-03T03:58:45.134Z,9.10
2023-02-03T04:01:11.995Z,9.10
2023-02-03T04:03:40.542Z,9.10
2023-02-03T04:06:07.309Z,9.00
2023-02-03T04:08:33.995Z,9.00
2023-02-03T04:11:00.630Z,9.00
2023-02-03T04:13:27.274Z,9.00
2023-02-03T04:15:53.967Z,9.00
2023-02-03T04:18:20.575Z,9.00
2023-02-03T04:20:47.200Z,9.00
2023-02-03T04:23:13.827Z,9.00
2023-02-03T04:25:40.494Z,8.90
2023-02-03T04:28:07.159Z,8.90
2023-02-03T04:30:33.906Z,8.90
2023-02-03T04:33:00.600Z,8.90
2023-02-03T04:35:27.748Z,8.90
2023-02-03T04:37:54.367Z,8.90
2023-02-03T04:40:21.080Z,8.90
2023-02-03T04:42:47.746Z,8.90
2023-02-03T04:45:14.332Z,8.90
2023-02-03T04:47:41.114Z,8.90
2023-02-03T04:50:08.096Z,8.80
2023-02-03T04:52:34.745Z,8.80
2023-02-03T04:55:01.389Z,8.80
2023-02-03T04:57:28.026Z,8.80
2023-02-03T04:59:54.799Z,8.80
2023-02-03T05:02:21.395Z,8.80
2023-02-03T05:04:48.027Z,8.80
2023-02-03T05:07:14.695Z,8.80
2023-02-03T05:09:41.329Z,8.80
2023-02-03T05:12:08.068Z,8.80
2023-02-03T05:14:34.722Z,8.80
2023-02-03T05:17:01.372Z,8.70
2023-02-03T05:19:28.171Z,8.70
2023-02-03T05:21:54.787Z,8.70
2023-02-03T05:24:21.386Z,8.70
2023-02-03T05:26:48.006Z,8.70
2023-02-03T05:29:14.597Z,8.70
2023-02-03T05:31:41.251Z,8.80
2023-02-03T05:34:07.961Z,8.70
2023-02-03T05:36:34.585Z,8.70
2023-02-03T05:39:01.206Z,8.70
2023-02-03T05:41:27.847Z,8.70
2023-02-03T05:43:54.480Z,8.80
2023-02-03T05:46:21.086Z,8.80
2023-02-03T05:48:47.740Z,8.70
2023-02-03T05:51:14.424Z,8.70
2023-02-03T05:53:41.095Z,8.80
2023-02-03T05:56:07.752Z,8.70
2023-02-03T05:58:34.356Z,8.80
2023-02-03T06:01:01.099Z,8.80
2023-02-03T06:03:27.830Z,8.80
2023-02-03T06:05:54.629Z,8.80
2023-02-03T06:08:21.265Z,8.80
2023-02-03T06:10:47.901Z,8.80
2023-02-03T06:13:15.652Z,8.80
2023-02-03T06:15:42.625Z,8.80
2023-02-03T06:18:09.265Z,8.80
2023-02-03T06:20:35.946Z,8.80
2023-02-03T06:23:02.587Z,8.80
2023-02-03T06:25:29.307Z,8.80
2023-02-03T06:27:55.955Z,8.70
2023-02-03T06:30:22.598Z,8.70
2023-02-03T06:32:49.222Z,8.70
2023-02-03T06:35:15.928Z,8.60
2023-02-03T06:37:42.630Z,8.60
2023-02-03T06:40:10.821Z,8.60
2023-02-03T06:42:37.450Z,8.60
2023-02-03T06:45:04.723Z,8.60
2023-02-03T06:47:31.324Z,8.70
2023-02-03T06:49:58.132Z,8.70
2023-02-03T06:52:24.821Z,8.80
2023-02-03T06:54:51.532Z,8.80
2023-02-03T06:57:18.223Z,8.80
2023-02-03T06:59:44.861Z,8.80
2023-02-03T07:02:11.920Z,8.80
2023-02-03T07:04:38.610Z,8.70
2023-02-03T07:07:05.481Z,8.70
2023-02-03T07:09:32.154Z,8.70
2023-02-03T07:11:58.741Z,8.70
2023-02-03T07:14:25.416Z,8.70
2023-02-03T07:16:52.121Z,8.70
2023-02-03T07:19:19.385Z,8.70
2023-02-03T07:21:45.984Z,8.70
2023-02-03T07:24:12.640Z,8.60
2023-02-03T07:26:39.283Z,8.60
2023-02-03T07:29:06.016Z,8.70
2023-02-03T07:31:32.730Z,8.70
2023-02-03T07:33:59.474Z,8.70
2023-02-03T07:36:26.096Z,8.70
2023-02-03T07:38:52.773Z,8.70
2023-02-03T07:41:19.399Z,8.70
2023-02-03T07:43:46.207Z,8.70
2023-02-03T07:46:13.066Z,8.80
2023-02-03T07:48:39.761Z,8.80
2023-02-03T07:51:06.379Z,8.80
2023-02-03T07:53:33.247Z,8.80
2023-02-03T07:56:01.053Z,8.80
2023-02-03T07:58:27.701Z,8.80
2023-02-03T08:00:54.341Z,8.80
2023-02-03T08:03:23.252Z,8.80
2023-02-03T08:05:49.889Z,8.90
2023-02-03T08:08:16.628Z,8.90
2023-02-03T08:10:43.268Z,8.90
2023-02-03T08:13:09.895Z,8.90
2023-02-03T08:15:36.534Z,8.90
2023-02-03T08:18:18.290Z,8.90
2023-02-03T08:20:46.875Z,9.00
2023-02-03T08:23:20.565Z,9.00
2023-02-03T08:25:54.221Z,9.00
2023-02-03T08:28:20.962Z,9.00
2023-02-03T08:30:50.893Z,9.00
2023-02-03T08:33:33.474Z,9.00
2023-02-03T08:36:00.049Z,9.00
2023-02-03T08:38:26.794Z,9.00
2023-02-03T08:40:53.616Z,9.00
2023-02-03T08:43:20.458Z,9.00
2023-02-03T08:45:47.173Z,9.00
2023-02-03T08:48:13.919Z,9.00
2023-02-03T08:50:43.938Z,9.00
2023-02-03T08:53:10.894Z,9.00
2023-02-03T08:55:40.746Z,9.00
2023-02-03T08:58:07.458Z,9.00
2023-02-03T09:00:34.142Z,9.00
2023-02-03T09:03:00.804Z,9.00
2023-02-03T09:05:27.416Z,9.00
2023-02-03T09:07:54.010Z,9.00
2023-02-03T09:10:20.666Z,9.00
2023-02-03T09:12:47.496Z,9.00
2023-02-03T09:15:17.217Z,9.00
2023-02-03T09:17:44.200Z,9.00
2023-02-03T09:20:11.467Z,9.00
2023-02-03T09:22:38.160Z,9.10
2023-02-03T09:25:06.063Z,9.10
2023-02-03T09:27:32.807Z,9.10
2023-02-03T09:30:00.289Z,9.10
2023-02-03T09:32:27.488Z,9.20
2023-02-03T09:34:54.187Z,9.20
2023-02-03T09:37:20.957Z,9.20
2023-02-03T09:39:47.642Z,9.20
2023-02-03T09:42:19.472Z,9.20
2023-02-03T09:45:10.339Z,9.20
2023-02-03T09:47:39.551Z,9.30
2023-02-03T09:50:07.650Z,9.30
2023-02-03T09:52:37.000Z,9.30
2023-02-03T09:55:15.343Z,9.40
2023-02-03T09:57:52.755Z,9.40
2023-02-03T10:00:27.649Z,9.50
2023-02-03T10:03:13.066Z,9.50
2023-02-03T10:06:10.888Z,9.60
2023-02-03T10:08:54.651Z,9.60
2023-02-03T10:11:43.192Z,9.60
2023-02-03T10:14:35.099Z,9.70
2023-02-03T10:17:01.822Z,9.60
2023-02-03T10:19:38.066Z,9.60
2023-02-03T10:22:04.744Z,9.70
2023-02-03T10:24:42.841Z,9.70
2023-02-03T10:27:15.431Z,9.70
2023-02-03T10:29:42.388Z,9.80
2023-02-03T10:32:12.469Z,9.80
2023-02-03T10:34:39.278Z,9.90
2023-02-03T10:37:41.852Z,9.90
2023-02-03T10:40:15.320Z,9.90
2023-02-03T10:42:42.725Z,9.90
2023-02-03T10:45:11.265Z,9.90
2023-02-03T10:47:56.249Z,9.90
2023-02-03T10:50:27.047Z,10.00
2023-02-03T10:52:54.039Z,10.00
2023-02-03T10:55:26.591Z,10.00
2023-02-03T10:57:53.870Z,10.00
2023-02-03T11:00:33.746Z,10.10
2023-02-03T11:03:17.047Z,10.10
2023-02-03T11:05:43.723Z,10.10
2023-02-03T11:08:16.834Z,10.20
2023-02-03T11:10:43.604Z,10.20
2023-02-03T11:13:13.187Z,10.20
2023-02-03T11:15:52.979Z,10.20
2023-02-03T11:18:26.774Z,10.20
2023-02-03T11:20:53.457Z,10.20
2023-02-03T11:23:22.028Z,10.20
2023-02-03T11:25:50.150Z,10.30
2023-02-03T11:28:17.207Z,10.30
2023-02-03T11:30:44.000Z,10.30
2023-02-03T11:33:20.314Z,10.30
2023-02-03T11:35:57.849Z,10.30
2023-02-03T11:38:31.949Z,10.30
2023-02-03T11:40:59.380Z,10.30
2023-02-03T11:43:26.041Z,10.30
2023-02-03T11:45:53.095Z,10.40
2023-02-03T11:48:32.154Z,10.40
2023-02-03T11:51:17.374Z,10.40
2023-02-03T11:53:57.827Z,10.50
2023-02-03T11:56:43.648Z,10.50
2023-02-03T11:59:28.247Z,10.50
2023-02-03T12:02:09.835Z,10.50
2023-02-03T12:04:46.973Z,10.60
2023-02-03T12:07:54.806Z,10.60
2023-02-03T12:10:36.897Z,10.60
2023-02-03T12:13:03.513Z,10.70
2023-02-03T12:15:54.802Z,10.70
2023-02-03T12:18:59.446Z,10.70
2023-02-03T12:21:26.106Z,10.70
2023-02-03T12:24:26.930Z,10.70
2023-02-03T12:27:12.150Z,10.70
2023-02-03T12:29:41.473Z,10.70
2023-02-03T12:32:14.080Z,10.80
2023-02-03T12:34:58.910Z,10.80
2023-02-03T12:37:39.421Z,10.80
2023-02-03T12:40:12.647Z,10.80
2023-02-03T12:43:12.326Z,10.70
2023-02-03T12:45:39.049Z,10.80
2023-02-03T12:48:10.356Z,10.80
2023-02-03T12:50:39.927Z,10.80
2023-02-03T12:53:30.913Z,10.80
2023-02-03T12:55:58.633Z,10.80
2023-02-03T12:58:32.452Z,10.80
2023-02-03T13:01:11.988Z,10.70
2023-02-03T13:04:00.552Z,10.70
2023-02-03T13:07:02.517Z,10.70
2023-02-03T13:09:50.087Z,10.60
2023-02-03T13:12:33.664Z,10.70
2023-02-03T13:15:18.867Z,10.70
2023-02-03T13:18:14.479Z,10.70
2023-02-03T13:20:41.316Z,10.70
2023-02-03T13:23:12.327Z,10.70
2023-02-03T13:25:57.769Z,10.70
2023-02-03T13:28:45.926Z,10.80
2023-02-03T13:31:37.788Z,10.70
2023-02-03T13:34:23.333Z,10.70
2023-02-03T13:36:58.696Z,10.70
2023-02-03T13:39:43.944Z,10.70
2023-02-03T13:42:31.926Z,10.70
2023-02-03T13:45:05.714Z,10.70
2023-02-03T13:47:32.365Z,10.70
2023-02-03T13:50:01.748Z,10.80
2023-02-03T13:52:41.298Z,10.80
2023-02-03T13:55:08.127Z,10.80
2023-02-03T13:57:36.042Z,10.80
2023-02-03T14:00:05.747Z,10.80
2023-02-03T14:02:45.314Z,10.90
2023-02-03T14:05:43.827Z,10.90
2023-02-03T14:08:25.453Z,11.00
2023-02-03T14:11:33.673Z,11.00
2023-02-03T14:14:09.294Z,11.00
2023-02-03T14:16:36.477Z,11.00
2023-02-03T14:19:20.344Z,11.00
2023-02-03T14:22:24.461Z,11.00
2023-02-03T14:24:57.839Z,11.00
2023-02-03T14:27:32.119Z,10.90
2023-02-03T14:30:08.233Z,10.90
2023-02-03T14:32:51.717Z,10.90
2023-02-03T14:35:20.222Z,10.90
2023-02-03T14:37:57.748Z,10.90
2023-02-03T14:40:46.212Z,10.90
2023-02-03T14:43:25.244Z,10.90
2023-02-03T14:46:13.691Z,10.90
2023-02-03T14:48:58.333Z,10.90
2023-02-03T14:51:27.800Z,10.90
2023-02-03T14:54:16.959Z,10.80
2023-02-03T14:57:02.187Z,10.90
2023-02-03T14:59:42.729Z,10.90
2023-02-03T15:02:11.111Z,10.90
2023-02-03T15:04:37.859Z,10.90
2023-02-03T15:07:04.480Z,10.90
2023-02-03T15:09:42.765Z,11.00
2023-02-03T15:12:19.841Z,11.00
2023-02-03T15:14:46.477Z,11.00
2023-02-03T15:17:21.213Z,11.00
2023-02-03T15:19:47.866Z,10.90
2023-02-03T15:22:37.522Z,10.90
2023-02-03T15:25:04.332Z,10.90
2023-02-03T15:27:32.497Z,10.90
2023-02-03T15:29:59.360Z,10.90
2023-02-03T15:32:36.857Z,10.80
2023-02-03T15:35:04.837Z,10.80
2023-02-03T15:37:37.425Z,10.80
2023-02-03T15:40:12.530Z,10.80
2023-02-03T15:42:43.193Z,10.80
2023-02-03T15:45:27.219Z,10.70
2023-02-03T15:48:03.134Z,10.70
2023-02-03T15:50:34.281Z,10.70
2023-02-03T15:53:04.941Z,10.70
2023-02-03T15:55:39.281Z,10.60
2023-02-03T15:58:06.036Z,10.50
2023-02-03T16:00:38.137Z,10.50
2023-02-03T16:03:06.903Z,10.50
2023-02-03T16:05:35.589Z,10.50
2023-02-03T16:08:42.398Z,10.40
2023-02-03T16:11:22.445Z,10.40
2023-02-03T16:13:49.101Z,10.40
2023-02-03T16:16:36.315Z,10.40
2023-02-03T16:19:12.153Z,10.30
2023-02-03T16:21:58.023Z,10.30
2023-02-03T16:24:35.909Z,10.20
2023-02-03T16:27:27.292Z,10.20
2023-02-03T16:29:55.173Z,10.20
2023-02-03T16:32:21.865Z,10.20
2023-02-03T16:34:48.507Z,10.20
2023-02-03T16:37:24.011Z,10.20
2023-02-03T16:39:50.887Z,10.20
2023-02-03T16:42:20.376Z,10.10
2023-02-03T16:44:48.273Z,10.10
2023-02-03T16:47:22.427Z,10.10
2023-02-03T16:49:49.200Z,10.00
2023-02-03T16:52:15.903Z,10.00
2023-02-03T16:54:42.607Z,9.90
2023-02-03T16:57:09.291Z,9.90
2023-02-03T16:59:35.954Z,9.90
2023-02-03T17:02:02.724Z,9.80
2023-02-03T17:04:29.466Z,9.80
2023-02-03T17:06:56.042Z,9.80
2023-02-03T17:09:22.711Z,9.80
2023-02-03T17:11:49.415Z,9.80
2023-02-03T17:14:16.059Z,9.80
2023-02-03T17:16:42.762Z,9.80
2023-02-03T17:19:12.610Z,9.80
2023-02-03T17:21:39.250Z,9.80
2023-02-03T17:24:06.151Z,9.80
2023-02-03T17:26:32.848Z,9.80
2023-02-03T17:28:59.544Z,9.80
2023-02-03T17:31:26.319Z,9.80
2023-02-03T17:33:56.087Z,9.80
2023-02-03T17:36:22.618Z,9.80
2023-02-03T17:55:18.501Z,9.70
2023-02-03T17:57:45.185Z,9.70
2023-02-03T18:00:12.212Z,9.70
2023-02-03T18:02:39.036Z,9.70
2023-02-03T18:05:06.013Z,9.70
2023-02-03T18:07:32.695Z,9.70
2023-02-03T18:09:59.381Z,9.80
2023-02-03T18:12:26.207Z,9.70
2023-02-03T18:14:53.005Z,9.70
2023-02-03T18:17:19.798Z,9.70
2023-02-03T18:19:49.286Z,9.70
2023-02-03T18:22:21.808Z,9.70
2023-02-03T18:24:48.477Z,9.70
2023-02-03T18:27:15.159Z,9.70
2023-02-03T18:29:43.286Z,9.70
2023-02-03T18:32:10.203Z,9.70
2023-02-03T18:34:37.172Z,9.70
2023-02-03T18:37:03.872Z,9.70
2023-02-03T18:39:30.548Z,9.70
2023-02-03T18:41:57.380Z,9.70
2023-02-03T18:44:24.081Z,9.70
2023-02-03T18:46:52.811Z,9.70
2023-02-03T18:49:19.449Z,9.70
2023-02-03T18:51:46.295Z,9.70
2023-02-03T18:54:13.001Z,9.70
2023-02-03T18:56:39.713Z,9.70
2023-02-03T18:59:08.120Z,9.70
2023-02-03T19:01:35.033Z,9.70
2023-02-03T19:04:02.115Z,9.70
2023-02-03T19:06:29.435Z,9.60
2023-02-03T19:08:56.463Z,9.70
2023-02-03T19:11:23.171Z,9.70
2023-02-03T19:13:50.139Z,9.70
2023-02-03T19:16:17.204Z,9.70
2023-02-03T19:18:47.368Z,9.70
2023-02-03T19:21:14.119Z,9.70
2023-02-03T19:23:42.252Z,9.70
2023-02-03T19:26:09.433Z,9.60
2023-02-03T19:28:36.104Z,9.60
2023-02-03T19:31:08.568Z,9.60
2023-02-03T19:33:36.578Z,9.60
2023-02-03T19:36:04.533Z,9.60
2023-02-03T19:38:31.379Z,9.60
2023-02-03T19:40:58.117Z,9.50
2023-02-03T19:43:24.980Z,9.50
2023-02-03T19:45:51.907Z,9.50
2023-02-03T19:48:21.858Z,9.50
2023-02-03T19:50:48.788Z,9.50
2023-02-03T19:53:16.050Z,9.40
2023-02-03T19:55:46.539Z,9.40
2023-02-03T19:58:13.388Z,9.40
2023-02-03T20:00:40.030Z,9.40
2023-02-03T20:03:06.739Z,9.40
2023-02-03T20:05:33.392Z,9.40
2023-02-03T20:08:00.153Z,9.40
2023-02-03T20:10:26.841Z,9.40
2023-02-03T20:12:54.475Z,9.30
2023-02-03T20:15:21.543Z,9.30
2023-02-03T20:17:48.264Z,9.30
2023-02-03T20:20:16.285Z,9.30
2023-02-03T20:22:42.885Z,9.30
2023-02-03T20:25:09.743Z,9.20
2023-02-03T20:27:36.456Z,9.20
2023-02-03T20:30:03.249Z,9.20
2023-02-03T20:32:30.055Z,9.20
2023-02-03T20:34:56.915Z,9.20
2023-02-03T20:37:23.612Z,9.20
2023-02-03T20:39:50.249Z,9.20
2023-02-03T20:42:17.257Z,9.20
2023-02-03T20:44:43.970Z,9.20
2023-02-03T20:47:12.067Z,9.20
2023-02-03T20:49:38.785Z,9.20
2023-02-03T20:52:18.335Z,9.20
2023-02-03T20:54:45.067Z,9.20
2023-02-03T20:57:20.593Z,9.20
2023-02-03T20:59:47.229Z,9.20
2023-02-03T21:02:22.419Z,9.20
2023-02-03T21:04:50.559Z,9.20
2023-02-03T21:07:17.173Z,9.20
2023-02-03T21:09:43.818Z,9.20
2023-02-03T21:12:11.849Z,9.20
2023-02-03T21:14:42.866Z,9.20
2023-02-03T21:17:23.249Z,9.20
2023-02-03T21:19:50.466Z,9.10
2023-02-03T21:22:24.658Z,9.10
2023-02-03T21:24:58.824Z,9.10
2023-02-03T21:27:33.466Z,9.00
2023-02-03T21:30:21.035Z,8.90
2023-02-03T21:32:47.689Z,8.90
2023-02-03T21:35:36.285Z,8.80
2023-02-03T21:38:20.302Z,8.70
2023-02-03T21:40:46.908Z,8.70
2023-02-03T21:43:17.035Z,8.60
2023-02-03T21:45:44.056Z,8.60
2023-02-03T21:48:34.564Z,8.60
2023-02-03T21:51:34.315Z,8.50
2023-02-03T21:54:02.258Z,8.50
2023-02-03T21:56:39.436Z,8.60
2023-02-03T21:59:13.354Z,8.50
2023-02-03T22:01:40.016Z,8.50
2023-02-03T22:04:06.684Z,8.50
2023-02-03T22:06:42.928Z,8.50
2023-02-03T22:09:11.888Z,8.50
2023-02-03T22:11:38.927Z,8.50
2023-02-03T22:14:06.009Z,8.50
2023-02-03T22:16:32.786Z,8.50
2023-02-03T22:18:59.732Z,8.50
2023-02-03T22:21:26.424Z,8.50
2023-02-03T22:23:53.378Z,8.50
2023-02-03T22:26:20.061Z,8.50
2023-02-03T22:28:46.868Z,8.50
2023-02-03T22:31:13.642Z,8.50
2023-02-03T22:33:40.576Z,8.50
2023-02-03T22:36:07.877Z,8.50
2023-02-03T22:38:34.842Z,8.50
2023-02-03T22:41:01.618Z,8.50
2023-02-03T22:43:30.888Z,8.50
2023-02-03T22:45:57.815Z,8.60
2023-02-03T22:48:24.451Z,8.60
2023-02-03T22:50:51.156Z,8.60
2023-02-03T22:53:17.851Z,8.60
2023-02-03T22:55:44.590Z,8.60
2023-02-03T22:58:11.446Z,8.60
2023-02-03T23:00:38.045Z,8.70
2023-02-03T23:03:04.720Z,8.70
2023-02-03T23:05:31.387Z,8.70
2023-02-03T23:07:58.005Z,8.70
2023-02-03T23:10:25.884Z,8.70
2023-02-03T23:12:52.553Z,8.70
2023-02-03T23:15:19.316Z,8.60
2023-02-03T23:17:46.008Z,8.60
2023-02-03T23:20:13.664Z,8.60
2023-02-03T23:22:40.288Z,8.60
2023-02-03T23:25:07.332Z,8.60
2023-02-03T23:27:33.962Z,8.60
2023-02-03T23:30:00.622Z,8.60
2023-02-03T23:32:27.255Z,8.60
2023-02-03T23:34:53.952Z,8.60
2023-02-03T23:37:20.609Z,8.60
2023-02-03T23:39:47.289Z,8.50
2023-02-03T23:42:13.976Z,8.50
2023-02-03T23:44:40.900Z,8.50
2023-02-03T23:47:07.655Z,8.50
2023-02-03T23:49:34.352Z,8.50
2023-02-03T23:52:01.053Z,8.50
2023-02-03T23:54:27.768Z,8.50
2023-02-03T23:56:54.402Z,8.50
2023-02-03T23:59:21.075Z,8.50
